sensor_id;sensor_type;location;lat;lon;timestamp;P1;durP1;ratioP1;P2;durP2;ratioP2
76119;SDS011;64852;48.092;-1.640;2023-02-10T00:01:03;10.60;;;9.20;;
76119;SDS011;64852;48.092;-1.640;2023-02-10T00:03:33;8.52;;;7.72;;
76119;SDS011;64852;48.092;-1.640;2023-02-10T00:06:00;10.52;;;9.63;;
76119;SDS011;64852;48.092;-1.640;2023-02-10T00:10:51;11.20;;;9.45;;
76119;SDS011;64852;48.092;-1.640;2023-02-10T00:13:20;9.25;;;8.35;;
76119;SDS011;64852;48.092;-1.640;2023-02-10T00:15:46;9.90;;;9.00;;
76119;SDS011;64852;48.092;-1.640;2023-02-10T00:18:12;10.97;;;9.97;;
76119;SDS011;64852;48.092;-1.640;2023-02-10T00:20:37;10.47;;;9.43;;
76119;SDS011;64852;48.092;-1.640;2023-02-10T00:23:03;10.93;;;9.80;;
76119;SDS011;64852;48.092;-1.640;2023-02-10T00:25:29;9.63;;;9.00;;
76119;SDS011;64852;48.092;-1.640;2023-02-10T00:27:55;12.80;;;10.37;;
76119;SDS011;64852;48.092;-1.640;2023-02-10T00:30:21;10.90;;;9.90;;
76119;SDS011;64852;48.092;-1.640;2023-02-10T00:32:46;10.40;;;9.63;;
76119;SDS011;64852;48.092;-1.640;2023-02-10T00:35:12;9.67;;;8.83;;
76119;SDS011;64852;48.092;-1.640;2023-02-10T00:37:37;9.53;;;8.87;;
76119;SDS011;64852;48.092;-1.640;2023-02-10T00:40:03;21.67;;;10.67;;
76119;SDS011;64852;48.092;-1.640;2023-02-10T00:42:29;12.10;;;10.93;;
76119;SDS011;64852;48.092;-1.640;2023-02-10T00:44:54;12.13;;;10.93;;
76119;SDS011;64852;48.092;-1.640;2023-02-10T00:47:20;11.57;;;10.40;;
76119;SDS011;64852;48.092;-1.640;2023-02-10T00:49:48;10.65;;;9.18;;
76119;SDS011;64852;48.092;-1.640;2023-02-10T00:52:14;11.20;;;10.30;;
76119;SDS011;64852;48.092;-1.640;2023-02-10T00:54:39;12.37;;;9.97;;
76119;SDS011;64852;48.092;-1.640;2023-02-10T00:57:05;8.53;;;7.93;;
76119;SDS011;64852;48.092;-1.640;2023-02-10T00:59:31;10.67;;;9.40;;
76119;SDS011;64852;48.092;-1.640;2023-02-10T01:01:56;9.97;;;9.27;;
76119;SDS011;64852;48.092;-1.640;2023-02-10T01:04:23;10.45;;;9.70;;
76119;SDS011;64852;48.092;-1.640;2023-02-10T01:06:48;11.80;;;10.02;;
76119;SDS011;64852;48.092;-1.640;2023-02-10T01:09:14;10.13;;;9.40;;
76119;SDS011;64852;48.092;-1.640;2023-02-10T01:11:40;10.00;;;9.15;;
76119;SDS011;64852;48.092;-1.640;2023-02-10T01:14:05;10.00;;;9.27;;
76119;SDS011;64852;48.092;-1.640;2023-02-10T01:16:31;11.25;;;10.05;;
76119;SDS011;64852;48.092;-1.640;2023-02-10T01:18:58;10.18;;;9.43;;
76119;SDS011;64852;48.092;-1.640;2023-02-10T01:21:25;10.23;;;9.23;;
76119;SDS011;64852;48.092;-1.640;2023-02-10T01:23:50;12.60;;;10.82;;
76119;SDS011;64852;48.092;-1.640;2023-02-10T01:26:16;10.23;;;9.23;;
76119;SDS011;64852;48.092;-1.640;2023-02-10T01:28:42;9.80;;;9.02;;
76119;SDS011;64852;48.092;-1.640;2023-02-10T01:31:09;11.73;;;10.73;;
76119;SDS011;64852;48.092;-1.640;2023-02-10T01:33:37;9.80;;;9.00;;
76119;SDS011;64852;48.092;-1.640;2023-02-10T01:36:09;10.32;;;8.88;;
76119;SDS011;64852;48.092;-1.640;2023-02-10T01:38:40;9.70;;;8.75;;
76119;SDS011;64852;48.092;-1.640;2023-02-10T01:41:06;8.98;;;8.40;;
76119;SDS011;64852;48.092;-1.640;2023-02-10T01:43:33;17.60;;;11.05;;
76119;SDS011;64852;48.092;-1.640;2023-02-10T01:46:17;13.65;;;9.35;;
76119;SDS011;64852;48.092;-1.640;2023-02-10T01:48:43;11.67;;;10.57;;
76119;SDS011;64852;48.092;-1.640;2023-02-10T01:51:09;10.83;;;9.83;;
76119;SDS011;64852;48.092;-1.640;2023-02-10T01:53:35;11.43;;;10.63;;
76119;SDS011;64852;48.092;-1.640;2023-02-10T01:56:01;11.60;;;10.55;;
76119;SDS011;64852;48.092;-1.640;2023-02-10T02:00:54;12.13;;;10.90;;
76119;SDS011;64852;48.092;-1.640;2023-02-10T02:03:20;10.50;;;9.63;;
76119;SDS011;64852;48.092;-1.640;2023-02-10T02:05:46;10.67;;;9.97;;
76119;SDS011;64852;48.092;-1.640;2023-02-10T02:24:41;12.98;;;9.25;;
76119;SDS011;64852;48.092;-1.640;2023-02-10T02:32:38;11.13;;;9.82;;
76119;SDS011;64852;48.092;-1.640;2023-02-10T02:35:12;10.90;;;10.10;;
76119;SDS011;64852;48.092;-1.640;2023-02-10T02:37:43;14.18;;;11.65;;
76119;SDS011;64852;48.092;-1.640;2023-02-10T02:40:12;12.50;;;11.40;;
76119;SDS011;64852;48.092;-1.640;2023-02-10T02:42:39;10.23;;;9.57;;
76119;SDS011;64852;48.092;-1.640;2023-02-10T02:45:09;12.85;;;11.60;;
76119;SDS011;64852;48.092;-1.640;2023-02-10T02:53:22;10.63;;;9.75;;
76119;SDS011;64852;48.092;-1.640;2023-02-10T03:01:03;11.27;;;10.48;;
76119;SDS011;64852;48.092;-1.640;2023-02-10T03:03:35;12.57;;;11.57;;
76119;SDS011;64852;48.092;-1.640;2023-02-10T03:06:02;12.10;;;11.20;;
76119;SDS011;64852;48.092;-1.640;2023-02-10T03:08:29;11.82;;;10.88;;
76119;SDS011;64852;48.092;-1.640;2023-02-10T03:10:56;11.02;;;10.32;;
76119;SDS011;64852;48.092;-1.640;2023-02-10T03:13:22;12.00;;;10.93;;
76119;SDS011;64852;48.092;-1.640;2023-02-10T03:15:47;11.10;;;10.15;;
76119;SDS011;64852;48.092;-1.640;2023-02-10T03:18:14;10.57;;;8.90;;
76119;SDS011;64852;48.092;-1.640;2023-02-10T03:20:40;9.80;;;9.00;;
76119;SDS011;64852;48.092;-1.640;2023-02-10T03:23:06;13.38;;;10.82;;
76119;SDS011;64852;48.092;-1.640;2023-02-10T03:25:32;9.75;;;9.13;;
76119;SDS011;64852;48.092;-1.640;2023-02-10T03:27:57;11.90;;;10.10;;
76119;SDS011;64852;48.092;-1.640;2023-02-10T03:30:23;11.90;;;9.07;;
76119;SDS011;64852;48.092;-1.640;2023-02-10T03:32:49;10.48;;;9.68;;
76119;SDS011;64852;48.092;-1.640;2023-02-10T03:35:18;10.55;;;9.68;;
76119;SDS011;64852;48.092;-1.640;2023-02-10T03:40:10;8.65;;;8.15;;
76119;SDS011;64852;48.092;-1.640;2023-02-10T03:42:36;9.30;;;8.23;;
76119;SDS011;64852;48.092;-1.640;2023-02-10T03:45:01;9.88;;;9.13;;
76119;SDS011;64852;48.092;-1.640;2023-02-10T03:47:27;9.75;;;8.85;;
76119;SDS011;64852;48.092;-1.640;2023-02-10T03:49:53;11.77;;;10.77;;
76119;SDS011;64852;48.092;-1.640;2023-02-10T03:52:19;9.83;;;9.23;;
76119;SDS011;64852;48.092;-1.640;2023-02-10T03:54:44;11.47;;;10.47;;
76119;SDS011;64852;48.092;-1.640;2023-02-10T03:57:10;10.20;;;9.43;;
76119;SDS011;64852;48.092;-1.640;2023-02-10T03:59:36;10.50;;;9.80;;
76119;SDS011;64852;48.092;-1.640;2023-02-10T04:02:02;14.63;;;11.05;;
76119;SDS011;64852;48.092;-1.640;2023-02-10T04:04:28;10.37;;;9.53;;
76119;SDS011;64852;48.092;-1.640;2023-02-10T04:06:54;10.48;;;9.73;;
76119;SDS011;64852;48.092;-1.640;2023-02-10T04:09:19;11.75;;;10.75;;
76119;SDS011;64852;48.092;-1.640;2023-02-10T04:11:45;12.60;;;11.70;;
76119;SDS011;64852;48.092;-1.640;2023-02-10T04:14:11;10.95;;;10.13;;
76119;SDS011;64852;48.092;-1.640;2023-02-10T04:16:36;10.50;;;9.85;;
76119;SDS011;64852;48.092;-1.640;2023-02-10T04:19:02;11.75;;;10.68;;
76119;SDS011;64852;48.092;-1.640;2023-02-10T04:21:28;11.32;;;10.25;;
76119;SDS011;64852;48.092;-1.640;2023-02-10T04:23:54;11.23;;;10.47;;
76119;SDS011;64852;48.092;-1.640;2023-02-10T04:26:20;11.57;;;10.68;;
76119;SDS011;64852;48.092;-1.640;2023-02-10T04:28:46;10.85;;;9.98;;
76119;SDS011;64852;48.092;-1.640;2023-02-10T04:31:12;10.75;;;10.07;;
76119;SDS011;64852;48.092;-1.640;2023-02-10T04:33:38;10.35;;;9.43;;
76119;SDS011;64852;48.092;-1.640;2023-02-10T04:36:04;10.60;;;9.80;;
76119;SDS011;64852;48.092;-1.640;2023-02-10T04:38:30;10.80;;;10.10;;
76119;SDS011;64852;48.092;-1.640;2023-02-10T04:40:56;11.38;;;10.57;;
76119;SDS011;64852;48.092;-1.640;2023-02-10T04:43:21;13.02;;;11.77;;
76119;SDS011;64852;48.092;-1.640;2023-02-10T04:45:47;11.82;;;10.63;;
76119;SDS011;64852;48.092;-1.640;2023-02-10T04:48:13;13.90;;;12.60;;
76119;SDS011;64852;48.092;-1.640;2023-02-10T04:50:39;11.82;;;10.90;;
76119;SDS011;64852;48.092;-1.640;2023-02-10T04:53:05;11.38;;;10.43;;
76119;SDS011;64852;48.092;-1.640;2023-02-10T04:55:31;9.50;;;8.98;;
76119;SDS011;64852;48.092;-1.640;2023-02-10T04:57:57;12.80;;;11.60;;
76119;SDS011;64852;48.092;-1.640;2023-02-10T05:00:23;12.38;;;11.05;;
76119;SDS011;64852;48.092;-1.640;2023-02-10T05:02:49;11.32;;;10.52;;
76119;SDS011;64852;48.092;-1.640;2023-02-10T05:05:15;11.52;;;10.60;;
76119;SDS011;64852;48.092;-1.640;2023-02-10T05:07:40;12.13;;;11.18;;
76119;SDS011;64852;48.092;-1.640;2023-02-10T05:10:06;9.80;;;9.20;;
76119;SDS011;64852;48.092;-1.640;2023-02-10T05:12:32;11.82;;;10.60;;
76119;SDS011;64852;48.092;-1.640;2023-02-10T05:14:58;10.57;;;9.97;;
76119;SDS011;64852;48.092;-1.640;2023-02-10T05:17:23;11.73;;;11.03;;
76119;SDS011;64852;48.092;-1.640;2023-02-10T05:19:49;12.30;;;11.43;;
76119;SDS011;64852;48.092;-1.640;2023-02-10T05:22:15;13.63;;;11.53;;
76119;SDS011;64852;48.092;-1.640;2023-02-10T05:24:40;12.88;;;11.90;;
76119;SDS011;64852;48.092;-1.640;2023-02-10T05:27:06;12.50;;;11.75;;
76119;SDS011;64852;48.092;-1.640;2023-02-10T05:29:32;10.73;;;10.05;;
76119;SDS011;64852;48.092;-1.640;2023-02-10T05:31:58;10.88;;;10.02;;
76119;SDS011;64852;48.092;-1.640;2023-02-10T05:34:24;11.20;;;10.40;;
76119;SDS011;64852;48.092;-1.640;2023-02-10T05:36:51;12.60;;;11.70;;
76119;SDS011;64852;48.092;-1.640;2023-02-10T05:39:17;12.07;;;11.27;;
76119;SDS011;64852;48.092;-1.640;2023-02-10T05:41:52;14.93;;;12.93;;
76119;SDS011;64852;48.092;-1.640;2023-02-10T05:44:19;13.80;;;12.18;;
76119;SDS011;64852;48.092;-1.640;2023-02-10T05:46:45;13.70;;;12.70;;
76119;SDS011;64852;48.092;-1.640;2023-02-10T05:49:11;12.32;;;11.52;;
76119;SDS011;64852;48.092;-1.640;2023-02-10T05:51:36;12.43;;;11.18;;
76119;SDS011;64852;48.092;-1.640;2023-02-10T05:54:02;15.32;;;14.10;;
76119;SDS011;64852;48.092;-1.640;2023-02-10T05:56:28;13.13;;;12.00;;
76119;SDS011;64852;48.092;-1.640;2023-02-10T05:58:54;12.32;;;11.52;;
76119;SDS011;64852;48.092;-1.640;2023-02-10T06:01:20;12.98;;;12.07;;
76119;SDS011;64852;48.092;-1.640;2023-02-10T06:03:46;12.07;;;11.32;;
76119;SDS011;64852;48.092;-1.640;2023-02-10T06:06:12;14.75;;;13.52;;
76119;SDS011;64852;48.092;-1.640;2023-02-10T06:08:37;14.68;;;13.32;;
76119;SDS011;64852;48.092;-1.640;2023-02-10T06:11:03;14.25;;;11.45;;
76119;SDS011;64852;48.092;-1.640;2023-02-10T06:13:29;12.45;;;11.55;;
76119;SDS011;64852;48.092;-1.640;2023-02-10T06:15:54;12.93;;;12.07;;
76119;SDS011;64852;48.092;-1.640;2023-02-10T06:18:20;12.17;;;11.47;;
76119;SDS011;64852;48.092;-1.640;2023-02-10T06:20:46;14.40;;;13.10;;
76119;SDS011;64852;48.092;-1.640;2023-02-10T06:23:12;12.82;;;12.02;;
76119;SDS011;64852;48.092;-1.640;2023-02-10T06:25:37;12.80;;;12.00;;
76119;SDS011;64852;48.092;-1.640;2023-02-10T06:28:03;12.13;;;11.30;;
76119;SDS011;64852;48.092;-1.640;2023-02-10T06:30:29;12.13;;;11.23;;
76119;SDS011;64852;48.092;-1.640;2023-02-10T06:32:55;13.82;;;12.88;;
76119;SDS011;64852;48.092;-1.640;2023-02-10T06:35:21;13.20;;;12.40;;
76119;SDS011;64852;48.092;-1.640;2023-02-10T06:37:46;12.93;;;11.93;;
76119;SDS011;64852;48.092;-1.640;2023-02-10T06:40:12;13.80;;;12.75;;
76119;SDS011;64852;48.092;-1.640;2023-02-10T06:42:38;11.55;;;10.40;;
76119;SDS011;64852;48.092;-1.640;2023-02-10T06:45:04;12.53;;;11.77;;
76119;SDS011;64852;48.092;-1.640;2023-02-10T06:47:31;12.60;;;11.77;;
76119;SDS011;64852;48.092;-1.640;2023-02-10T06:49:56;22.33;;;14.68;;
76119;SDS011;64852;48.092;-1.640;2023-02-10T06:52:22;17.63;;;14.77;;
76119;SDS011;64852;48.092;-1.640;2023-02-10T06:54:49;13.35;;;12.43;;
76119;SDS011;64852;48.092;-1.640;2023-02-10T06:57:15;12.85;;;11.93;;
76119;SDS011;64852;48.092;-1.640;2023-02-10T06:59:41;12.55;;;11.68;;
76119;SDS011;64852;48.092;-1.640;2023-02-10T07:02:07;15.23;;;13.93;;
76119;SDS011;64852;48.092;-1.640;2023-02-10T07:04:35;13.35;;;12.43;;
76119;SDS011;64852;48.092;-1.640;2023-02-10T07:07:00;12.88;;;12.07;;
76119;SDS011;64852;48.092;-1.640;2023-02-10T07:09:26;14.33;;;13.43;;
76119;SDS011;64852;48.092;-1.640;2023-02-10T07:11:52;13.20;;;12.10;;
76119;SDS011;64852;48.092;-1.640;2023-02-10T07:14:18;11.50;;;10.63;;
76119;SDS011;64852;48.092;-1.640;2023-02-10T07:16:43;12.40;;;11.52;;
76119;SDS011;64852;48.092;-1.640;2023-02-10T07:19:09;10.80;;;10.10;;
76119;SDS011;64852;48.092;-1.640;2023-02-10T07:21:35;12.48;;;11.50;;
76119;SDS011;64852;48.092;-1.640;2023-02-10T07:24:02;14.40;;;13.20;;
76119;SDS011;64852;48.092;-1.640;2023-02-10T07:26:28;14.65;;;13.00;;
76119;SDS011;64852;48.092;-1.640;2023-02-10T07:28:53;12.77;;;11.60;;
76119;SDS011;64852;48.092;-1.640;2023-02-10T07:31:19;13.20;;;11.88;;
76119;SDS011;64852;48.092;-1.640;2023-02-10T07:33:45;11.65;;;10.65;;
76119;SDS011;64852;48.092;-1.640;2023-02-10T07:36:11;10.43;;;9.50;;
76119;SDS011;64852;48.092;-1.640;2023-02-10T07:38:37;13.40;;;12.45;;
76119;SDS011;64852;48.092;-1.640;2023-02-10T07:41:03;13.20;;;12.03;;
76119;SDS011;64852;48.092;-1.640;2023-02-10T07:43:31;11.80;;;11.05;;
76119;SDS011;64852;48.092;-1.640;2023-02-10T07:45:57;12.13;;;11.43;;
76119;SDS011;64852;48.092;-1.640;2023-02-10T07:48:23;13.33;;;12.23;;
76119;SDS011;64852;48.092;-1.640;2023-02-10T07:50:49;12.27;;;11.48;;
76119;SDS011;64852;48.092;-1.640;2023-02-10T07:53:16;13.40;;;12.40;;
76119;SDS011;64852;48.092;-1.640;2023-02-10T07:58:08;11.18;;;10.45;;
76119;SDS011;64852;48.092;-1.640;2023-02-10T08:00:34;12.63;;;11.73;;
76119;SDS011;64852;48.092;-1.640;2023-02-10T08:03:00;15.48;;;12.80;;
76119;SDS011;64852;48.092;-1.640;2023-02-10T08:05:25;11.63;;;10.83;;
76119;SDS011;64852;48.092;-1.640;2023-02-10T08:07:53;13.68;;;12.77;;
76119;SDS011;64852;48.092;-1.640;2023-02-10T08:10:19;13.73;;;12.85;;
76119;SDS011;64852;48.092;-1.640;2023-02-10T08:12:45;15.25;;;14.20;;
76119;SDS011;64852;48.092;-1.640;2023-02-10T08:15:11;13.40;;;12.40;;
76119;SDS011;64852;48.092;-1.640;2023-02-10T08:17:37;11.77;;;10.95;;
76119;SDS011;64852;48.092;-1.640;2023-02-10T08:20:04;13.20;;;12.10;;
76119;SDS011;64852;48.092;-1.640;2023-02-10T08:22:31;15.27;;;14.18;;
76119;SDS011;64852;48.092;-1.640;2023-02-10T08:24:58;14.80;;;13.75;;
76119;SDS011;64852;48.092;-1.640;2023-02-10T08:27:23;13.18;;;12.05;;
76119;SDS011;64852;48.092;-1.640;2023-02-10T08:29:49;12.30;;;11.60;;
76119;SDS011;64852;48.092;-1.640;2023-02-10T08:32:15;12.90;;;12.10;;
76119;SDS011;64852;48.092;-1.640;2023-02-10T08:34:44;16.48;;;15.32;;
76119;SDS011;64852;48.092;-1.640;2023-02-10T08:37:11;13.90;;;13.00;;
76119;SDS011;64852;48.092;-1.640;2023-02-10T08:39:37;13.18;;;12.27;;
76119;SDS011;64852;48.092;-1.640;2023-02-10T08:42:03;13.33;;;12.43;;
76119;SDS011;64852;48.092;-1.640;2023-02-10T08:44:29;13.27;;;12.20;;
76119;SDS011;64852;48.092;-1.640;2023-02-10T08:46:54;12.40;;;11.60;;
76119;SDS011;64852;48.092;-1.640;2023-02-10T08:49:20;14.68;;;13.57;;
76119;SDS011;64852;48.092;-1.640;2023-02-10T08:51:49;16.42;;;15.23;;
76119;SDS011;64852;48.092;-1.640;2023-02-10T08:54:16;13.85;;;12.93;;
76119;SDS011;64852;48.092;-1.640;2023-02-10T08:56:42;14.13;;;13.07;;
76119;SDS011;64852;48.092;-1.640;2023-02-10T08:59:07;12.60;;;11.77;;
76119;SDS011;64852;48.092;-1.640;2023-02-10T09:01:33;11.90;;;11.20;;
76119;SDS011;64852;48.092;-1.640;2023-02-10T09:03:59;14.45;;;13.45;;
76119;SDS011;64852;48.092;-1.640;2023-02-10T09:06:26;13.70;;;12.73;;
76119;SDS011;64852;48.092;-1.640;2023-02-10T09:08:58;15.90;;;14.80;;
76119;SDS011;64852;48.092;-1.640;2023-02-10T09:11:25;13.43;;;12.60;;
76119;SDS011;64852;48.092;-1.640;2023-02-10T09:16:17;14.55;;;13.48;;
76119;SDS011;64852;48.092;-1.640;2023-02-10T09:18:42;16.48;;;15.25;;
76119;SDS011;64852;48.092;-1.640;2023-02-10T09:21:08;15.77;;;14.53;;
76119;SDS011;64852;48.092;-1.640;2023-02-10T09:23:35;15.48;;;14.25;;
76119;SDS011;64852;48.092;-1.640;2023-02-10T09:26:01;13.98;;;12.82;;
76119;SDS011;64852;48.092;-1.640;2023-02-10T09:28:28;15.23;;;13.88;;
76119;SDS011;64852;48.092;-1.640;2023-02-10T09:30:54;14.65;;;13.45;;
76119;SDS011;64852;48.092;-1.640;2023-02-10T09:33:20;17.30;;;15.95;;
76119;SDS011;64852;48.092;-1.640;2023-02-10T09:35:46;13.90;;;12.98;;
76119;SDS011;64852;48.092;-1.640;2023-02-10T09:38:12;11.52;;;10.77;;
76119;SDS011;64852;48.092;-1.640;2023-02-10T09:40:47;14.02;;;13.13;;
76119;SDS011;64852;48.092;-1.640;2023-02-10T09:46:12;10.43;;;9.52;;
76119;SDS011;64852;48.092;-1.640;2023-02-10T09:48:53;12.48;;;11.57;;
76119;SDS011;64852;48.092;-1.640;2023-02-10T09:54:11;13.50;;;12.32;;
76119;SDS011;64852;48.092;-1.640;2023-02-10T09:56:37;11.40;;;10.73;;
76119;SDS011;64852;48.092;-1.640;2023-02-10T09:59:04;12.13;;;11.02;;
76119;SDS011;64852;48.092;-1.640;2023-02-10T10:02:08;12.55;;;11.55;;
76119;SDS011;64852;48.092;-1.640;2023-02-10T10:04:25;12.25;;;11.52;;
76119;SDS011;64852;48.092;-1.640;2023-02-10T10:07:07;12.93;;;11.68;;
76119;SDS011;64852;48.092;-1.640;2023-02-10T10:09:51;13.80;;;12.65;;
76119;SDS011;64852;48.092;-1.640;2023-02-10T10:12:39;12.23;;;11.10;;
76119;SDS011;64852;48.092;-1.640;2023-02-10T10:15:06;13.82;;;12.73;;
76119;SDS011;64852;48.092;-1.640;2023-02-10T10:23:19;11.93;;;11.00;;
76119;SDS011;64852;48.092;-1.640;2023-02-10T10:31:14;14.23;;;11.90;;
76119;SDS011;64852;48.092;-1.640;2023-02-10T10:36:33;11.38;;;10.57;;
76119;SDS011;64852;48.092;-1.640;2023-02-10T10:41:56;14.50;;;13.23;;
76119;SDS011;64852;48.092;-1.640;2023-02-10T10:44:26;10.98;;;10.10;;
76119;SDS011;64852;48.092;-1.640;2023-02-10T10:46:59;14.18;;;10.52;;
76119;SDS011;64852;48.092;-1.640;2023-02-10T10:49:39;12.63;;;11.57;;
76119;SDS011;64852;48.092;-1.640;2023-02-10T10:52:26;10.32;;;9.63;;
76119;SDS011;64852;48.092;-1.640;2023-02-10T10:55:02;11.18;;;10.10;;
76119;SDS011;64852;48.092;-1.640;2023-02-10T10:57:33;10.13;;;9.25;;
76119;SDS011;64852;48.092;-1.640;2023-02-10T11:00:06;10.50;;;9.53;;
76119;SDS011;64852;48.092;-1.640;2023-02-10T11:02:38;10.85;;;10.13;;
76119;SDS011;64852;48.092;-1.640;2023-02-10T11:05:05;11.73;;;10.50;;
76119;SDS011;64852;48.092;-1.640;2023-02-10T11:07:38;9.75;;;9.05;;
76119;SDS011;64852;48.092;-1.640;2023-02-10T11:10:05;14.80;;;10.82;;
76119;SDS011;64852;48.092;-1.640;2023-02-10T11:12:38;11.50;;;10.60;;
76119;SDS011;64852;48.092;-1.640;2023-02-10T11:17:49;13.13;;;10.60;;
76119;SDS011;64852;48.092;-1.640;2023-02-10T11:22:42;13.53;;;12.07;;
76119;SDS011;64852;48.092;-1.640;2023-02-10T11:25:28;11.43;;;10.52;;
76119;SDS011;64852;48.092;-1.640;2023-02-10T11:27:59;12.00;;;11.15;;
76119;SDS011;64852;48.092;-1.640;2023-02-10T11:30:36;11.30;;;10.60;;
76119;SDS011;64852;48.092;-1.640;2023-02-10T11:33:04;10.60;;;9.90;;
76119;SDS011;64852;48.092;-1.640;2023-02-10T11:35:46;10.43;;;9.63;;
76119;SDS011;64852;48.092;-1.640;2023-02-10T11:38:32;8.98;;;8.38;;
76119;SDS011;64852;48.092;-1.640;2023-02-10T11:41:04;12.63;;;11.63;;
76119;SDS011;64852;48.092;-1.640;2023-02-10T11:43:39;11.75;;;10.80;;
76119;SDS011;64852;48.092;-1.640;2023-02-10T11:46:07;9.63;;;8.93;;
76119;SDS011;64852;48.092;-1.640;2023-02-10T11:48:51;10.98;;;10.20;;
76119;SDS011;64852;48.092;-1.640;2023-02-10T11:51:23;10.13;;;9.38;;
76119;SDS011;64852;48.092;-1.640;2023-02-10T11:53:49;11.77;;;9.40;;
76119;SDS011;64852;48.092;-1.640;2023-02-10T11:56:18;9.75;;;9.10;;
76119;SDS011;64852;48.092;-1.640;2023-02-10T12:02:23;10.30;;;9.60;;
76119;SDS011;64852;48.092;-1.640;2023-02-10T12:05:13;10.90;;;9.88;;
76119;SDS011;64852;48.092;-1.640;2023-02-10T12:07:58;7.97;;;7.50;;
76119;SDS011;64852;48.092;-1.640;2023-02-10T12:16:22;7.88;;;7.28;;
76119;SDS011;64852;48.092;-1.640;2023-02-10T12:19:03;6.55;;;6.00;;
76119;SDS011;64852;48.092;-1.640;2023-02-10T12:21:42;8.15;;;7.35;;
76119;SDS011;64852;48.092;-1.640;2023-02-10T12:29:54;7.72;;;7.20;;
76119;SDS011;64852;48.092;-1.640;2023-02-10T12:35:46;6.60;;;6.07;;
76119;SDS011;64852;48.092;-1.640;2023-02-10T12:52:50;6.85;;;6.38;;
76119;SDS011;64852;48.092;-1.640;2023-02-10T12:55:35;8.55;;;7.30;;
76119;SDS011;64852;48.092;-1.640;2023-02-10T12:58:42;6.55;;;6.05;;
76119;SDS011;64852;48.092;-1.640;2023-02-10T13:04:07;6.57;;;5.85;;
76119;SDS011;64852;48.092;-1.640;2023-02-10T13:06:39;6.18;;;5.72;;
76119;SDS011;64852;48.092;-1.640;2023-02-10T13:09:34;7.47;;;6.18;;
76119;SDS011;64852;48.092;-1.640;2023-02-10T13:12:34;5.35;;;4.95;;
76119;SDS011;64852;48.092;-1.640;2023-02-10T13:15:05;7.72;;;6.88;;
76119;SDS011;64852;48.092;-1.640;2023-02-10T13:17:44;6.18;;;5.68;;
76119;SDS011;64852;48.092;-1.640;2023-02-10T13:20:24;6.35;;;5.75;;
76119;SDS011;64852;48.092;-1.640;2023-02-10T13:23:01;8.10;;;6.07;;
76119;SDS011;64852;48.092;-1.640;2023-02-10T13:28:32;11.90;;;5.90;;
76119;SDS011;64852;48.092;-1.640;2023-02-10T13:36:19;4.95;;;4.55;;
76119;SDS011;64852;48.092;-1.640;2023-02-10T13:38:56;4.57;;;4.28;;
76119;SDS011;64852;48.092;-1.640;2023-02-10T13:41:31;6.55;;;4.97;;
76119;SDS011;64852;48.092;-1.640;2023-02-10T13:44:29;11.00;;;4.28;;
76119;SDS011;64852;48.092;-1.640;2023-02-10T13:47:09;4.28;;;3.92;;
76119;SDS011;64852;48.092;-1.640;2023-02-10T13:49:49;4.93;;;4.55;;
76119;SDS011;64852;48.092;-1.640;2023-02-10T13:52:21;4.38;;;4.15;;
76119;SDS011;64852;48.092;-1.640;2023-02-10T13:54:53;6.00;;;5.47;;
76119;SDS011;64852;48.092;-1.640;2023-02-10T13:57:23;5.85;;;5.32;;
76119;SDS011;64852;48.092;-1.640;2023-02-10T13:59:51;5.03;;;4.60;;
76119;SDS011;64852;48.092;-1.640;2023-02-10T14:02:21;4.53;;;4.23;;
76119;SDS011;64852;48.092;-1.640;2023-02-10T14:04:50;4.90;;;4.60;;
76119;SDS011;64852;48.092;-1.640;2023-02-10T14:09:59;5.13;;;4.82;;
76119;SDS011;64852;48.092;-1.640;2023-02-10T14:15:29;4.70;;;4.40;;
76119;SDS011;64852;48.092;-1.640;2023-02-10T14:20:32;5.57;;;5.18;;
76119;SDS011;64852;48.092;-1.640;2023-02-10T14:23:00;5.15;;;4.75;;
76119;SDS011;64852;48.092;-1.640;2023-02-10T14:25:36;4.15;;;3.85;;
76119;SDS011;64852;48.092;-1.640;2023-02-10T14:28:04;4.50;;;4.20;;
76119;SDS011;64852;48.092;-1.640;2023-02-10T14:30:43;5.15;;;4.75;;
76119;SDS011;64852;48.092;-1.640;2023-02-10T14:33:29;5.32;;;4.93;;
76119;SDS011;64852;48.092;-1.640;2023-02-10T14:35:57;4.47;;;4.18;;
76119;SDS011;64852;48.092;-1.640;2023-02-10T14:38:26;4.82;;;4.53;;
76119;SDS011;64852;48.092;-1.640;2023-02-10T14:40:54;4.40;;;4.10;;
76119;SDS011;64852;48.092;-1.640;2023-02-10T14:43:23;5.35;;;4.95;;
76119;SDS011;64852;48.092;-1.640;2023-02-10T14:45:51;8.13;;;5.40;;
76119;SDS011;64852;48.092;-1.640;2023-02-10T14:50:55;11.23;;;4.82;;
76119;SDS011;64852;48.092;-1.640;2023-02-10T14:53:43;8.98;;;4.90;;
76119;SDS011;64852;48.092;-1.640;2023-02-10T14:56:16;4.37;;;4.00;;
76119;SDS011;64852;48.092;-1.640;2023-02-10T14:58:47;5.05;;;4.57;;
76119;SDS011;64852;48.092;-1.640;2023-02-10T15:01:18;4.37;;;4.07;;
76119;SDS011;64852;48.092;-1.640;2023-02-10T15:03:50;4.65;;;4.35;;
76119;SDS011;64852;48.092;-1.640;2023-02-10T15:06:16;4.28;;;3.90;;
76119;SDS011;64852;48.092;-1.640;2023-02-10T15:11:38;12.20;;;4.68;;
76119;SDS011;64852;48.092;-1.640;2023-02-10T15:14:29;4.10;;;3.80;;
76119;SDS011;64852;48.092;-1.640;2023-02-10T15:16:58;4.75;;;4.38;;
76119;SDS011;64852;48.092;-1.640;2023-02-10T15:19:27;4.90;;;4.47;;
76119;SDS011;64852;48.092;-1.640;2023-02-10T15:21:53;4.93;;;4.63;;
76119;SDS011;64852;48.092;-1.640;2023-02-10T15:26:46;3.92;;;3.63;;
76119;SDS011;64852;48.092;-1.640;2023-02-10T15:29:14;4.60;;;4.30;;
76119;SDS011;64852;48.092;-1.640;2023-02-10T15:31:41;4.30;;;4.00;;
76119;SDS011;64852;48.092;-1.640;2023-02-10T15:34:29;5.07;;;4.78;;
76119;SDS011;64852;48.092;-1.640;2023-02-10T15:39:34;4.97;;;4.57;;
76119;SDS011;64852;48.092;-1.640;2023-02-10T15:42:05;4.28;;;3.97;;
76119;SDS011;64852;48.092;-1.640;2023-02-10T15:50:09;5.85;;;4.70;;
76119;SDS011;64852;48.092;-1.640;2023-02-10T15:52:40;3.35;;;3.15;;
76119;SDS011;64852;48.092;-1.640;2023-02-10T15:55:15;4.63;;;4.32;;
76119;SDS011;64852;48.092;-1.640;2023-02-10T15:58:02;4.22;;;3.92;;
76119;SDS011;64852;48.092;-1.640;2023-02-10T16:02:55;4.45;;;4.20;;
76119;SDS011;64852;48.092;-1.640;2023-02-10T16:05:21;4.50;;;4.07;;
76119;SDS011;64852;48.092;-1.640;2023-02-10T16:07:48;7.00;;;4.20;;
76119;SDS011;64852;48.092;-1.640;2023-02-10T16:10:20;4.78;;;4.38;;
76119;SDS011;64852;48.092;-1.640;2023-02-10T16:12:47;5.18;;;4.68;;
76119;SDS011;64852;48.092;-1.640;2023-02-10T16:15:14;4.38;;;3.95;;
76119;SDS011;64852;48.092;-1.640;2023-02-10T16:17:42;5.72;;;5.13;;
76119;SDS011;64852;48.092;-1.640;2023-02-10T16:20:14;4.10;;;3.80;;
76119;SDS011;64852;48.092;-1.640;2023-02-10T16:22:42;4.38;;;4.07;;
76119;SDS011;64852;48.092;-1.640;2023-02-10T16:25:09;5.03;;;4.22;;
76119;SDS011;64852;48.092;-1.640;2023-02-10T16:27:34;7.32;;;4.18;;
76119;SDS011;64852;48.092;-1.640;2023-02-10T16:30:00;4.73;;;3.83;;
76119;SDS011;64852;48.092;-1.640;2023-02-10T16:32:25;4.40;;;4.10;;
76119;SDS011;64852;48.092;-1.640;2023-02-10T16:34:51;4.47;;;4.17;;
76119;SDS011;64852;48.092;-1.640;2023-02-10T16:37:18;6.80;;;4.37;;
76119;SDS011;64852;48.092;-1.640;2023-02-10T16:39:44;4.88;;;4.47;;
76119;SDS011;64852;48.092;-1.640;2023-02-10T16:42:10;3.78;;;3.58;;
76119;SDS011;64852;48.092;-1.640;2023-02-10T16:44:36;4.85;;;4.50;;
76119;SDS011;64852;48.092;-1.640;2023-02-10T16:47:01;4.57;;;4.00;;
76119;SDS011;64852;48.092;-1.640;2023-02-10T16:49:27;5.00;;;4.60;;
76119;SDS011;64852;48.092;-1.640;2023-02-10T16:51:53;3.93;;;3.63;;